createdAt,value
2023-06-08T04:02:54.929Z,96645.22
2023-06-08T04:05:00.354Z,96649.56
2023-06-08T04:07:03.229Z,96649.28
2023-06-08T04:09:06.606Z,96647.34
2023-06-08T04:11:10.032Z,96648.38
2023-06-08T04:13:12.918Z,96652.97
2023-06-08T04:15:15.861Z,96649.19
2023-06-08T04:17:18.682Z,96648.88
2023-06-08T04:19:22.818Z,96645.91
2023-06-08T04:21:26.450Z,96650.19
2023-06-08T04:23:30.098Z,96648.84
2023-06-08T04:25:33.182Z,96656.59
2023-06-08T04:27:36.767Z,96655.25
2023-06-08T04:29:39.623Z,96657.41
2023-06-08T04:31:42.646Z,96655.22
2023-06-08T04:33:45.975Z,96657.66
2023-06-08T04:35:50.155Z,96655.47
2023-06-08T04:37:53.077Z,96656.81
2023-06-08T04:39:57.910Z,96653.06
2023-06-08T04:42:00.963Z,96654.66
2023-06-08T04:44:05.002Z,96648.47
2023-06-08T04:46:08.612Z,96646.84
2023-06-08T04:48:12.086Z,96656.28
2023-06-08T04:52:20.491Z,96647.66
2023-06-08T04:54:24.318Z,96654.09
2023-06-08T04:56:30.411Z,96650.59
2023-06-08T04:58:34.340Z,96648.44
2023-06-08T05:00:37.396Z,96651.63
2023-06-08T05:02:40.900Z,96663.75
2023-06-08T05:04:43.953Z,96661.06
2023-06-08T05:06:46.782Z,96657.31
2023-06-08T05:08:50.958Z,96662.41
2023-06-08T05:10:53.741Z,96664.84
2023-06-08T05:12:57.915Z,96667.25
2023-06-08T05:15:03.872Z,96665.66
2023-06-08T05:17:06.884Z,96664.84
2023-06-08T05:19:10.077Z,96669.44
2023-06-08T05:21:12.916Z,96663.75
2023-06-08T05:23:15.866Z,96665.06
2023-06-08T05:25:20.566Z,96662.13
2023-06-08T05:27:23.544Z,96669.59
2023-06-08T05:29:26.493Z,96663.63
2023-06-08T05:31:29.771Z,96661.94
2023-06-08T05:33:32.657Z,96656.47
2023-06-08T05:35:35.498Z,96659.63
2023-06-08T05:37:38.466Z,96659.31
2023-06-08T05:39:41.315Z,96652.97
2023-06-08T05:41:45.524Z,96658.63
2023-06-08T05:43:48.365Z,96656.34
2023-06-08T05:45:51.202Z,96665.16
2023-06-08T05:47:54.186Z,96656.66
2023-06-08T05:49:57.042Z,96665.97
2023-06-08T05:52:00.064Z,96664.78
2023-06-08T05:54:02.833Z,96654.13
2023-06-08T05:56:06.020Z,96653.84
2023-06-08T05:58:10.311Z,96659.69
2023-06-08T06:00:14.673Z,96658.53
2023-06-08T06:02:17.676Z,96652.53
2023-06-08T06:04:35.143Z,96651.94
2023-06-08T06:06:39.979Z,96658.13
2023-06-08T06:08:44.672Z,96660.22
2023-06-08T06:10:48.127Z,96658.84
2023-06-08T06:12:51.428Z,96655.34
2023-06-08T06:14:56.570Z,96659.94
2023-06-08T06:19:09.046Z,96658.97
2023-06-08T06:21:11.996Z,96654.72
2023-06-08T06:23:14.768Z,96657.50
2023-06-08T06:25:17.578Z,96660.03
2023-06-08T06:27:21.327Z,96662.75
2023-06-08T06:29:24.610Z,96665.75
2023-06-08T06:31:28.940Z,96655.19
2023-06-08T06:33:31.910Z,96656.84
2023-06-08T06:35:34.685Z,96656.00
2023-06-08T06:37:37.597Z,96659.03
2023-06-08T06:39:40.634Z,96654.47
2023-06-08T06:41:44.182Z,96656.66
2023-06-08T06:43:47.020Z,96656.75
2023-06-08T06:45:52.431Z,96663.78
2023-06-08T06:47:57.096Z,96660.03
2023-06-08T06:50:00.990Z,96659.66
2023-06-08T06:52:04.010Z,96657.72
2023-06-08T06:54:07.166Z,96660.88
2023-06-08T06:56:09.993Z,96667.88
2023-06-08T06:58:13.873Z,96663.47
2023-06-08T07:00:17.655Z,96661.28
2023-06-08T07:02:20.916Z,96668.09
2023-06-08T07:04:26.793Z,96672.19
2023-06-08T07:06:31.666Z,96665.22
2023-06-08T07:08:34.818Z,96662.84
2023-06-08T07:10:38.539Z,96662.31
2023-06-08T07:12:41.308Z,96658.56
2023-06-08T07:14:44.203Z,96659.16
2023-06-08T07:16:47.064Z,96655.13
2023-06-08T07:18:51.194Z,96663.00
2023-06-08T07:20:55.465Z,96663.56
2023-06-08T07:23:25.194Z,96658.44
2023-06-08T07:26:07.754Z,96667.94
2023-06-08T07:27:45.571Z,96670.94
2023-06-08T07:29:48.864Z,96666.66
2023-06-08T07:31:51.848Z,96671.56
2023-06-08T07:33:56.064Z,96667.25
2023-06-08T07:36:00.716Z,96656.44
2023-06-08T07:38:03.601Z,96664.53
2023-06-08T07:40:10.101Z,96658.63
2023-06-08T07:42:12.957Z,96664.03
2023-06-08T07:44:16.957Z,96659.16
2023-06-08T07:46:19.960Z,96655.41
2023-06-08T07:48:22.969Z,96659.16
2023-06-08T07:50:25.771Z,96657.56
2023-06-08T07:52:30.117Z,96657.06
2023-06-08T07:54:32.863Z,96657.91
2023-06-08T07:56:36.545Z,96655.22
2023-06-08T07:58:39.918Z,96659.00
2023-06-08T08:00:42.841Z,96649.00
2023-06-08T08:02:46.139Z,96652.75
2023-06-08T08:04:49.185Z,96653.53
2023-06-08T08:06:52.087Z,96656.25
2023-06-08T08:08:56.368Z,96645.16
2023-06-08T08:10:59.378Z,96650.56
2023-06-08T08:13:02.577Z,96648.13
2023-06-08T08:15:06.371Z,96652.44
2023-06-08T08:17:09.587Z,96655.16
2023-06-08T08:19:12.555Z,96647.34
2023-06-08T08:21:15.349Z,96652.22
2023-06-08T08:23:18.738Z,96646.31
2023-06-08T08:25:23.187Z,96641.41
2023-06-08T08:27:26.062Z,96643.31
2023-06-08T08:29:29.023Z,96637.09
2023-06-08T08:31:32.125Z,96634.16
2023-06-08T08:33:35.340Z,96632.81
2023-06-08T08:35:38.255Z,96634.72
2023-06-08T08:37:42.005Z,96632.81
2023-06-08T08:39:44.882Z,96620.94
2023-06-08T08:41:54.734Z,96632.81
2023-06-08T08:44:02.981Z,96627.44
2023-06-08T08:46:08.811Z,96630.19
2023-06-08T08:48:14.577Z,96624.78
2023-06-08T08:50:19.391Z,96637.19
2023-06-08T08:52:24.218Z,96634.50
2023-06-08T08:54:32.820Z,96634.00
2023-06-08T08:56:37.857Z,96635.59
2023-06-08T08:58:42.603Z,96632.91
2023-06-08T09:00:49.884Z,96628.88
2023-06-08T09:02:53.779Z,96633.19
2023-06-08T09:04:56.962Z,96621.00
2023-06-08T09:06:59.808Z,96625.81
2023-06-08T09:09:03.001Z,96623.41
2023-06-08T09:11:07.433Z,96613.63
2023-06-08T09:13:21.890Z,96610.38
2023-06-08T09:15:31.929Z,96613.88
2023-06-08T09:17:39.654Z,96616.88
2023-06-08T09:19:53.880Z,96609.03
2023-06-08T09:21:57.357Z,96611.22
2023-06-08T09:24:11.402Z,96605.81
2023-06-08T09:26:30.997Z,96608.22
2023-06-08T09:28:35.416Z,96605.25
2023-06-08T09:30:39.739Z,96613.59
2023-06-08T09:32:42.729Z,96604.09
2023-06-08T09:34:54.504Z,96608.41
2023-06-08T09:37:08.581Z,96603.81
2023-06-08T09:39:12.282Z,96600.88
2023-06-08T09:41:17.054Z,96598.97
2023-06-08T09:43:33.280Z,96597.88
2023-06-08T09:45:46.887Z,96594.91
2023-06-08T09:47:49.941Z,96593.00
2023-06-08T09:49:53.845Z,96596.50
2023-06-08T09:52:01.724Z,96583.00
2023-06-08T09:54:09.472Z,96588.91
2023-06-08T09:56:15.814Z,96588.34
2023-06-08T09:58:18.985Z,96591.56
2023-06-08T10:00:24.573Z,96595.88
2023-06-08T10:02:35.683Z,96587.78
2023-06-08T10:04:44.417Z,96588.28
2023-06-08T10:06:49.434Z,96589.09
2023-06-08T10:08:57.966Z,96584.50
2023-06-08T10:11:03.322Z,96581.50
2023-06-08T10:13:07.684Z,96577.44
2023-06-08T10:15:12.172Z,96582.53
2023-06-08T10:17:16.349Z,96573.03
2023-06-08T10:19:23.423Z,96570.34
2023-06-08T10:21:28.348Z,96569.03
2023-06-08T10:23:33.145Z,96563.38
2023-06-08T10:25:37.628Z,96562.03
2023-06-08T10:27:48.427Z,96560.63
2023-06-08T10:29:56.210Z,96557.03
2023-06-08T10:31:59.122Z,96556.50
2023-06-08T10:34:07.485Z,96553.19
2023-06-08T10:36:12.707Z,96559.41
2023-06-08T10:38:17.287Z,96557.22
2023-06-08T10:40:21.360Z,96545.31
2023-06-08T10:42:24.257Z,96542.00
2023-06-08T10:44:32.417Z,96546.31
2023-06-08T10:46:45.169Z,96542.81
2023-06-08T10:48:49.610Z,96542.53
2023-06-08T10:50:52.634Z,96531.72
2023-06-08T10:52:59.462Z,96530.94
2023-06-08T10:55:10.665Z,96535.75
2023-06-08T10:57:16.334Z,96530.03
2023-06-08T10:59:19.496Z,96526.84
2023-06-08T11:01:22.663Z,96538.16
2023-06-08T11:03:26.275Z,96530.56
2023-06-08T11:05:31.168Z,96528.66
2023-06-08T11:07:35.012Z,96531.91
2023-06-08T11:09:39.481Z,96527.81
2023-06-08T11:11:52.375Z,96528.03
2023-06-08T11:13:55.321Z,96532.06
2023-06-08T11:15:58.195Z,96538.25
2023-06-08T11:18:01.457Z,96530.94
2023-06-08T11:20:07.585Z,96525.53
2023-06-08T11:22:10.696Z,96522.03
2023-06-08T11:24:16.078Z,96519.34
2023-06-08T11:26:23.665Z,96521.44
2023-06-08T11:28:26.989Z,96516.56
2023-06-08T11:30:32.432Z,96507.84
2023-06-08T11:32:36.583Z,96506.16
2023-06-08T11:34:40.082Z,96513.97
2023-06-08T11:36:43.474Z,96507.22
2023-06-08T11:38:46.281Z,96504.72
2023-06-08T11:40:49.198Z,96513.31
2023-06-08T11:42:54.002Z,96506.81
2023-06-08T11:44:59.166Z,96508.41
2023-06-08T11:47:02.658Z,96514.34
2023-06-08T11:49:09.161Z,96521.38
2023-06-08T11:51:12.163Z,96505.94
2023-06-08T11:53:17.657Z,96505.34
2023-06-08T11:55:23.792Z,96505.06
2023-06-08T11:57:41.261Z,96501.44
2023-06-08T11:59:47.000Z,96495.78
2023-06-08T12:01:57.432Z,96492.47
2023-06-08T12:04:00.610Z,96485.66
2023-06-08T12:06:04.305Z,96477.72
2023-06-08T12:08:12.763Z,96478.25
2023-06-08T12:10:16.349Z,96477.97
2023-06-08T12:12:19.512Z,96477.34
2023-06-08T12:14:22.379Z,96476.75
2023-06-08T12:16:26.982Z,96473.22
2023-06-08T12:18:29.856Z,96475.00
2023-06-08T12:20:35.469Z,96477.63
2023-06-08T12:22:38.295Z,96471.63
2023-06-08T12:24:41.043Z,96466.41
2023-06-08T12:26:43.911Z,96474.41
2023-06-08T12:28:46.889Z,96464.41
2023-06-08T12:30:49.846Z,96463.00
2023-06-08T12:32:56.585Z,96464.63
2023-06-08T12:35:00.291Z,96458.69
2023-06-08T12:37:05.944Z,96465.41
2023-06-08T12:39:08.820Z,96468.63
2023-06-08T12:41:11.838Z,96460.19
2023-06-08T12:43:14.898Z,96462.28
2023-06-08T12:45:19.261Z,96461.22
2023-06-08T12:47:22.328Z,96462.28
2023-06-08T12:49:26.988Z,96464.22
2023-06-08T12:51:30.950Z,96456.06
2023-06-08T12:53:33.893Z,96457.97
2023-06-08T12:55:36.858Z,96451.78
2023-06-08T12:57:40.288Z,96450.97
2023-06-08T12:59:43.079Z,96443.94
2023-06-08T13:01:46.690Z,96451.19
2023-06-08T13:03:49.859Z,96445.97
2023-06-08T13:05:54.270Z,96448.56
2023-06-08T13:08:06.636Z,96439.84
2023-06-08T13:10:11.018Z,96441.16
2023-06-08T13:12:14.554Z,96444.34
2023-06-08T13:14:17.574Z,96444.53
2023-06-08T13:16:21.447Z,96450.97
2023-06-08T13:18:26.658Z,96439.84
2023-06-08T13:20:31.050Z,96448.16
2023-06-08T13:22:35.725Z,96427.28
2023-06-08T13:24:39.150Z,96430.28
2023-06-08T13:26:42.376Z,96432.69
2023-06-08T13:28:45.277Z,96433.50
2023-06-08T13:30:48.373Z,96431.91
2023-06-08T13:32:51.285Z,96420.25
2023-06-08T13:34:56.418Z,96428.59
2023-06-08T13:36:59.417Z,96422.09
2023-06-08T13:39:04.011Z,96421.00
2023-06-08T13:41:08.301Z,96428.03
2023-06-08T13:43:13.450Z,96422.00
2023-06-08T13:45:16.688Z,96421.38
2023-06-08T13:47:19.616Z,96421.59
2023-06-08T13:49:22.477Z,96413.94
2023-06-08T13:51:25.453Z,96420.16
2023-06-08T13:53:28.363Z,96417.66
2023-06-08T13:55:33.111Z,96419.44
2023-06-08T13:57:36.111Z,96418.84
2023-06-08T13:59:41.363Z,96411.19
2023-06-08T14:01:44.276Z,96402.75
2023-06-08T14:03:47.243Z,96393.81
2023-06-08T14:05:50.476Z,96396.13
2023-06-08T14:07:53.548Z,96398.88
2023-06-08T14:09:56.486Z,96407.53
2023-06-08T14:12:00.903Z,96412.16
2023-06-08T14:14:04.033Z,96406.75
2023-06-08T14:16:08.903Z,96400.81
2023-06-08T14:18:11.974Z,96397.97
2023-06-08T14:20:15.062Z,96401.19
2023-06-08T14:22:18.128Z,96398.97
2023-06-08T14:24:21.313Z,96397.69
2023-06-08T14:26:24.203Z,96387.31
2023-06-08T14:28:28.561Z,96400.25
2023-06-08T14:30:33.077Z,96398.16
2023-06-08T14:32:36.209Z,96392.56
2023-06-08T14:34:39.193Z,96390.97
2023-06-08T14:36:44.172Z,96389.03
2023-06-08T14:38:47.504Z,96382.34
2023-06-08T14:40:50.558Z,96389.47
2023-06-08T14:42:53.556Z,96384.03
2023-06-08T14:44:57.791Z,96390.25
2023-06-08T14:47:00.779Z,96384.22
2023-06-08T14:49:03.750Z,96387.13
2023-06-08T14:51:06.644Z,96382.50
2023-06-08T14:53:09.421Z,96375.97
2023-06-08T14:55:12.218Z,96383.31
2023-06-08T14:57:15.184Z,96381.22
2023-06-08T14:59:18.016Z,96378.78
2023-06-08T15:01:22.439Z,96383.25
2023-06-08T15:03:25.339Z,96383.53
2023-06-08T15:05:28.439Z,96380.66
2023-06-08T15:07:31.653Z,96378.25
2023-06-08T15:09:35.132Z,96375.81
2023-06-08T15:11:37.921Z,96373.72
2023-06-08T15:13:43.417Z,96381.88
2023-06-08T15:15:47.224Z,96379.16
2023-06-08T15:17:51.609Z,96373.72
2023-06-08T15:19:54.422Z,96378.03
2023-06-08T15:21:57.381Z,96376.44
2023-06-08T15:24:00.326Z,96380.25
2023-06-08T15:26:03.392Z,96379.97
2023-06-08T15:28:06.515Z,96377.06
2023-06-08T15:30:10.438Z,96383.59
2023-06-08T15:32:17.261Z,96380.88
2023-06-08T15:34:21.670Z,96378.47
2023-06-08T15:36:24.536Z,96381.47
2023-06-08T15:38:28.276Z,96379.88
2023-06-08T15:40:33.687Z,96378.28
2023-06-08T15:42:36.733Z,96382.91
2023-06-08T15:44:39.649Z,96376.38
2023-06-08T15:46:43.543Z,96381.47
2023-06-08T15:48:49.360Z,96376.06
2023-06-08T15:50:53.727Z,96377.69
2023-06-08T15:52:56.703Z,96378.47
2023-06-08T15:54:59.580Z,96380.09
2023-06-08T15:57:02.539Z,96371.63
2023-06-08T15:59:05.342Z,96377.88
2023-06-08T16:01:08.242Z,96383.28
2023-06-08T16:03:11.225Z,96378.66
2023-06-08T16:05:14.278Z,96374.34
2023-06-08T16:07:18.942Z,96361.91
2023-06-08T16:09:21.691Z,96370.53
2023-06-08T16:11:24.475Z,96375.16
2023-06-08T16:13:27.302Z,96376.75
2023-06-08T16:15:32.295Z,96376.25
2023-06-08T16:17:36.085Z,96372.75
2023-06-08T16:19:39.387Z,96372.75
2023-06-08T16:21:47.345Z,96372.25
2023-06-08T16:23:55.657Z,96374.97
2023-06-08T16:25:59.494Z,96363.31
2023-06-08T16:28:03.618Z,96357.59
2023-06-08T16:30:08.516Z,96359.78
2023-06-08T16:32:11.891Z,96363.59
2023-06-08T16:34:15.409Z,96366.84
2023-06-08T16:36:18.344Z,96366.84
2023-06-08T16:38:23.261Z,96366.03
2023-06-08T16:40:28.251Z,96361.22
2023-06-08T16:42:31.433Z,96360.09
2023-06-08T16:44:34.467Z,96356.28
2023-06-08T16:46:38.067Z,96367.44
2023-06-08T16:48:41.117Z,96360.72
2023-06-08T16:50:43.918Z,96359.13
2023-06-08T16:52:46.765Z,96362.13
2023-06-08T16:54:51.477Z,96359.44
2023-06-08T16:56:56.138Z,96358.94
2023-06-08T16:58:59.467Z,96351.91
2023-06-08T17:01:02.642Z,96357.34
2023-06-08T17:03:06.012Z,96350.81
2023-06-08T17:05:10.156Z,96349.22
2023-06-08T17:07:13.456Z,96343.16
2023-06-08T17:09:16.629Z,96347.97
2023-06-08T17:11:19.809Z,96337.13
2023-06-08T17:13:24.934Z,96344.94
2023-06-08T17:15:27.868Z,96343.34
2023-06-08T17:17:31.078Z,96335.53
2023-06-08T17:19:34.448Z,96339.34
2023-06-08T17:21:37.227Z,96342.53
2023-06-08T17:23:40.765Z,96352.75
2023-06-08T17:25:44.472Z,96360.91
2023-06-08T17:27:47.582Z,96359.00
2023-06-08T17:29:51.913Z,96363.59
2023-06-08T17:31:55.467Z,96357.22
2023-06-08T17:33:59.107Z,96356.00
2023-06-08T17:36:02.291Z,96356.75
2023-06-08T17:38:08.696Z,96368.19
2023-06-08T17:40:12.478Z,96364.69
2023-06-08T17:42:16.163Z,96369.78
2023-06-08T17:44:19.479Z,96374.94
2023-06-08T17:46:24.482Z,96380.34
2023-06-08T17:48:27.755Z,96369.78
2023-06-08T17:50:30.894Z,96366.88
2023-06-08T17:52:34.338Z,96378.31
2023-06-08T17:54:37.881Z,96372.50
2023-06-08T17:56:44.313Z,96370.91
2023-06-08T17:58:48.467Z,96371.50
2023-06-08T18:00:51.621Z,96376.94
2023-06-08T18:02:56.628Z,96371.31
2023-06-08T18:04:59.975Z,96373.81
2023-06-08T18:07:05.253Z,96369.00
2023-06-08T18:09:08.347Z,96358.56
2023-06-08T18:11:11.688Z,96362.19
2023-06-08T18:13:15.511Z,96353.88
2023-06-08T18:15:18.619Z,96355.19
2023-06-08T18:17:22.061Z,96362.31
2023-06-08T18:19:27.165Z,96357.47
2023-06-08T18:21:30.840Z,96357.47
2023-06-08T18:23:33.771Z,96352.69
2023-06-08T18:25:37.556Z,96358.09
2023-06-08T18:27:41.271Z,96362.69
2023-06-08T18:29:45.216Z,96358.88
2023-06-08T18:31:48.928Z,96354.38
2023-06-08T18:33:53.046Z,96360.91
2023-06-08T18:35:58.580Z,96349.56
2023-06-08T18:38:01.846Z,96349.88
2023-06-08T18:40:05.499Z,96352.25
2023-06-08T18:42:10.284Z,96352.25
2023-06-08T18:44:14.260Z,96348.44
2023-06-08T18:46:19.359Z,96346.56
2023-06-08T18:48:23.013Z,96358.47
2023-06-08T18:50:26.270Z,96342.22
2023-06-08T18:52:32.474Z,96341.44
2023-06-08T18:54:35.642Z,96340.31
2023-06-08T18:56:38.406Z,96346.06
2023-06-08T18:58:41.672Z,96344.25
2023-06-08T19:00:44.595Z,96348.88
2023-06-08T19:02:47.605Z,96350.78
2023-06-08T19:04:50.742Z,96353.47
2023-06-08T19:06:53.541Z,96352.38
2023-06-08T19:08:59.771Z,96348.56
2023-06-08T19:11:02.778Z,96342.84
2023-06-08T19:13:06.034Z,96359.59
2023-06-08T19:15:10.974Z,96367.72
2023-06-08T19:17:14.142Z,96359.28
2023-06-08T19:19:18.578Z,96363.09
2023-06-08T19:21:21.806Z,96366.31
2023-06-08T19:23:25.127Z,96362.00
2023-06-08T19:25:30.106Z,96367.41
2023-06-08T19:27:33.440Z,96370.94
2023-06-08T19:29:37.569Z,96375.53
2023-06-08T19:31:41.577Z,96375.53
2023-06-08T19:33:44.739Z,96382.34
2023-06-08T19:35:47.885Z,96381.56
2023-06-08T19:37:51.400Z,96390.16
2023-06-08T19:39:55.014Z,96389.66
2023-06-08T19:42:03.931Z,96391.78
2023-06-08T19:44:06.965Z,96395.59
2023-06-08T19:46:11.735Z,96396.13
2023-06-08T19:48:15.020Z,96403.44
2023-06-08T19:50:18.195Z,96401.00
2023-06-08T19:52:21.290Z,96402.41
2023-06-08T19:54:24.435Z,96405.13
2023-06-08T19:56:27.787Z,96412.44
2023-06-08T19:58:32.882Z,96419.44
2023-06-08T20:00:36.384Z,96410.84
2023-06-08T20:02:39.812Z,96419.94
2023-06-08T20:04:44.173Z,96423.28
2023-06-08T20:06:48.822Z,96433.28
2023-06-08T20:08:52.427Z,96427.06
2023-06-08T20:10:55.263Z,96429.28
2023-06-08T20:13:01.692Z,96433.91
2023-06-08T20:15:07.304Z,96432.00
2023-06-08T20:17:10.906Z,96435.50
2023-06-08T20:19:13.986Z,96425.28
2023-06-08T20:21:16.889Z,96429.88
2023-06-08T20:23:20.237Z,96433.66
2023-06-08T20:25:25.067Z,96437.47
2023-06-08T20:27:28.793Z,96438.56
2023-06-08T20:29:33.838Z,96434.25
2023-06-08T20:31:40.034Z,96438.06
2023-06-08T20:33:42.934Z,96432.16
2023-06-08T20:35:46.322Z,96442.47
2023-06-08T20:37:49.174Z,96438.97
2023-06-08T20:39:52.304Z,96446.28
2023-06-08T20:41:55.313Z,96450.91
